sensor_id;sensor_type;location;lat;lon;timestamp;pressure;altitude;pressure_sealevel;temperature;humidity
77452;BME280;66537;52.370;4.832;2023-01-28T00:00:23;103151.13;;;4.03;69.09
77452;BME280;66537;52.370;4.832;2023-01-28T00:02:49;103152.94;;;3.82;69.47
77452;BME280;66537;52.370;4.832;2023-01-28T00:05:15;103145.69;;;3.94;69.27
77452;BME280;66537;52.370;4.832;2023-01-28T00:07:43;103151.88;;;4.01;69.07
77452;BME280;66537;52.370;4.832;2023-01-28T00:10:11;103141.00;;;4.06;69.62
77452;BME280;66537;52.370;4.832;2023-01-28T00:12:37;103135.97;;;3.86;68.69
77452;BME280;66537;52.370;4.832;2023-01-28T00:15:02;103137.81;;;3.90;69.43
77452;BME280;66537;52.370;4.832;2023-01-28T00:17:28;103136.63;;;3.56;69.25
77452;BME280;66537;52.370;4.832;2023-01-28T00:19:53;103123.56;;;3.96;69.90
77452;BME280;66537;52.370;4.832;2023-01-28T00:22:19;103131.19;;;3.95;69.13
77452;BME280;66537;52.370;4.832;2023-01-28T00:24:44;103131.47;;;4.02;69.32
77452;BME280;66537;52.370;4.832;2023-01-28T00:27:10;103128.22;;;4.08;68.95
77452;BME280;66537;52.370;4.832;2023-01-28T00:29:35;103119.91;;;4.15;68.47
77452;BME280;66537;52.370;4.832;2023-01-28T00:32:01;103122.59;;;4.18;69.03
77452;BME280;66537;52.370;4.832;2023-01-28T00:34:26;103131.84;;;4.39;68.99
77452;BME280;66537;52.370;4.832;2023-01-28T00:36:51;103133.34;;;4.33;68.77
77452;BME280;66537;52.370;4.832;2023-01-28T00:39:23;103132.06;;;4.20;67.93
77452;BME280;66537;52.370;4.832;2023-01-28T00:41:50;103135.63;;;4.24;69.14
77452;BME280;66537;52.370;4.832;2023-01-28T00:44:16;103136.84;;;4.10;68.12
77452;BME280;66537;52.370;4.832;2023-01-28T00:46:42;103131.19;;;3.95;67.86
77452;BME280;66537;52.370;4.832;2023-01-28T00:49:07;103130.91;;;3.87;69.55
77452;BME280;66537;52.370;4.832;2023-01-28T00:51:33;103138.25;;;4.02;68.71
77452;BME280;66537;52.370;4.832;2023-01-28T00:53:59;103138.63;;;4.12;68.64
77452;BME280;66537;52.370;4.832;2023-01-28T00:56:24;103136.31;;;3.95;68.11
77452;BME280;66537;52.370;4.832;2023-01-28T00:58:49;103135.66;;;4.00;68.70
77452;BME280;66537;52.370;4.832;2023-01-28T01:01:18;103136.19;;;3.92;68.96
77452;BME280;66537;52.370;4.832;2023-01-28T01:03:44;103122.94;;;4.03;68.55
77452;BME280;66537;52.370;4.832;2023-01-28T01:06:11;103136.63;;;4.04;68.83
77452;BME280;66537;52.370;4.832;2023-01-28T01:08:37;103134.03;;;4.02;68.85
77452;BME280;66537;52.370;4.832;2023-01-28T01:11:09;103132.84;;;4.18;68.26
77452;BME280;66537;52.370;4.832;2023-01-28T01:13:35;103132.03;;;3.95;68.49
77452;BME280;66537;52.370;4.832;2023-01-28T01:18:27;103131.69;;;3.85;68.99
77452;BME280;66537;52.370;4.832;2023-01-28T01:20:53;103132.63;;;3.87;68.64
77452;BME280;66537;52.370;4.832;2023-01-28T01:23:26;103120.47;;;3.81;69.05
77452;BME280;66537;52.370;4.832;2023-01-28T01:25:52;103125.66;;;3.83;68.14
77452;BME280;66537;52.370;4.832;2023-01-28T01:28:17;103126.44;;;3.82;68.62
77452;BME280;66537;52.370;4.832;2023-01-28T01:30:43;103132.00;;;3.70;69.26
77452;BME280;66537;52.370;4.832;2023-01-28T01:33:08;103135.34;;;3.67;68.56
77452;BME280;66537;52.370;4.832;2023-01-28T01:35:33;103139.03;;;3.52;68.91
77452;BME280;66537;52.370;4.832;2023-01-28T01:37:59;103129.88;;;3.58;68.40
77452;BME280;66537;52.370;4.832;2023-01-28T01:40:24;103138.88;;;3.71;67.73
77452;BME280;66537;52.370;4.832;2023-01-28T01:42:50;103130.31;;;3.94;67.94
77452;BME280;66537;52.370;4.832;2023-01-28T01:45:15;103136.94;;;3.89;67.23
77452;BME280;66537;52.370;4.832;2023-01-28T01:47:47;103141.59;;;3.52;66.67
77452;BME280;66537;52.370;4.832;2023-01-28T01:50:33;103130.38;;;3.72;68.32
77452;BME280;66537;52.370;4.832;2023-01-28T01:53:05;103135.50;;;3.72;67.26
77452;BME280;66537;52.370;4.832;2023-01-28T01:55:34;103127.84;;;3.97;67.62
77452;BME280;66537;52.370;4.832;2023-01-28T01:58:05;103127.09;;;3.76;66.86
77452;BME280;66537;52.370;4.832;2023-01-28T02:00:31;103132.13;;;3.73;66.88
77452;BME280;66537;52.370;4.832;2023-01-28T02:02:57;103135.22;;;3.64;66.85
77452;BME280;66537;52.370;4.832;2023-01-28T02:05:23;103144.94;;;3.51;67.38
77452;BME280;66537;52.370;4.832;2023-01-28T02:07:52;103133.31;;;3.59;67.57
77452;BME280;66537;52.370;4.832;2023-01-28T02:10:41;103135.13;;;3.85;68.14
77452;BME280;66537;52.370;4.832;2023-01-28T02:13:08;103142.31;;;3.72;67.35
77452;BME280;66537;52.370;4.832;2023-01-28T02:15:33;103142.63;;;3.57;66.68
77452;BME280;66537;52.370;4.832;2023-01-28T02:17:58;103146.34;;;3.65;66.96
77452;BME280;66537;52.370;4.832;2023-01-28T02:28:48;103151.50;;;3.66;67.16
77452;BME280;66537;52.370;4.832;2023-01-28T02:31:30;103146.06;;;3.81;67.07
77452;BME280;66537;52.370;4.832;2023-01-28T02:34:05;103131.59;;;3.58;67.55
77452;BME280;66537;52.370;4.832;2023-01-28T02:36:53;103138.72;;;3.66;67.42
77452;BME280;66537;52.370;4.832;2023-01-28T02:39:24;103144.97;;;3.75;66.20
77452;BME280;66537;52.370;4.832;2023-01-28T02:41:56;103130.72;;;3.81;66.35
77452;BME280;66537;52.370;4.832;2023-01-28T02:44:23;103136.84;;;3.86;67.07
77452;BME280;66537;52.370;4.832;2023-01-28T02:46:51;103142.72;;;3.84;66.78
77452;BME280;66537;52.370;4.832;2023-01-28T02:49:49;103144.81;;;3.94;66.00
77452;BME280;66537;52.370;4.832;2023-01-28T02:52:28;103147.19;;;3.89;65.85
77452;BME280;66537;52.370;4.832;2023-01-28T02:55:29;103141.50;;;3.96;66.41
77452;BME280;66537;52.370;4.832;2023-01-28T03:01:32;103144.63;;;3.89;65.33
77452;BME280;66537;52.370;4.832;2023-01-28T03:04:13;103144.00;;;3.95;65.63
77452;BME280;66537;52.370;4.832;2023-01-28T03:06:43;103147.09;;;3.86;66.09
77452;BME280;66537;52.370;4.832;2023-01-28T03:09:11;103139.69;;;3.70;66.52
77452;BME280;66537;52.370;4.832;2023-01-28T03:14:38;103132.00;;;3.70;66.07
77452;BME280;66537;52.370;4.832;2023-01-28T03:17:34;103138.97;;;3.50;65.53
77452;BME280;66537;52.370;4.832;2023-01-28T03:20:20;103137.94;;;3.69;66.61
77452;BME280;66537;52.370;4.832;2023-01-28T03:23:09;103142.50;;;4.01;66.38
77452;BME280;66537;52.370;4.832;2023-01-28T03:25:57;103146.91;;;4.05;66.25
77452;BME280;66537;52.370;4.832;2023-01-28T03:28:43;103142.47;;;4.00;66.35
77452;BME280;66537;52.370;4.832;2023-01-28T03:31:29;103141.69;;;3.55;66.21
77452;BME280;66537;52.370;4.832;2023-01-28T03:34:14;103146.44;;;3.68;66.96
77452;BME280;66537;52.370;4.832;2023-01-28T03:36:58;103136.38;;;3.73;65.86
77452;BME280;66537;52.370;4.832;2023-01-28T03:39:26;103135.44;;;3.94;66.44
77452;BME280;66537;52.370;4.832;2023-01-28T03:44:20;103143.34;;;4.00;66.76
77452;BME280;66537;52.370;4.832;2023-01-28T03:47:04;103160.66;;;4.32;66.46
77452;BME280;66537;52.370;4.832;2023-01-28T03:49:33;103159.06;;;4.11;65.80
77452;BME280;66537;52.370;4.832;2023-01-28T03:51:58;103161.38;;;4.28;66.26
77452;BME280;66537;52.370;4.832;2023-01-28T03:54:24;103158.31;;;4.13;65.26
77452;BME280;66537;52.370;4.832;2023-01-28T03:56:49;103163.59;;;3.94;64.32
77452;BME280;66537;52.370;4.832;2023-01-28T03:59:14;103162.47;;;4.10;65.58
77452;BME280;66537;52.370;4.832;2023-01-28T04:01:39;103169.94;;;4.29;65.53
77452;BME280;66537;52.370;4.832;2023-01-28T04:04:05;103172.00;;;4.39;65.28
77452;BME280;66537;52.370;4.832;2023-01-28T04:06:30;103161.97;;;4.45;65.15
77452;BME280;66537;52.370;4.832;2023-01-28T04:08:56;103165.06;;;4.36;65.39
77452;BME280;66537;52.370;4.832;2023-01-28T04:11:24;103175.06;;;4.29;64.85
77452;BME280;66537;52.370;4.832;2023-01-28T04:13:50;103172.13;;;4.18;64.65
77452;BME280;66537;52.370;4.832;2023-01-28T04:16:17;103170.94;;;4.09;64.48
77452;BME280;66537;52.370;4.832;2023-01-28T04:18:43;103157.00;;;4.01;64.54
77452;BME280;66537;52.370;4.832;2023-01-28T04:21:09;103152.91;;;4.06;64.38
77452;BME280;66537;52.370;4.832;2023-01-28T04:23:35;103151.00;;;4.24;65.14
77452;BME280;66537;52.370;4.832;2023-01-28T04:26:01;103149.13;;;3.71;65.29
77452;BME280;66537;52.370;4.832;2023-01-28T04:28:28;103154.25;;;3.95;65.88
77452;BME280;66537;52.370;4.832;2023-01-28T04:30:53;103143.91;;;3.93;65.71
77452;BME280;66537;52.370;4.832;2023-01-28T04:33:18;103145.94;;;4.02;66.41
77452;BME280;66537;52.370;4.832;2023-01-28T04:35:44;103144.94;;;4.22;65.89
77452;BME280;66537;52.370;4.832;2023-01-28T04:38:09;103152.00;;;4.29;65.03
77452;BME280;66537;52.370;4.832;2023-01-28T04:40:35;103150.25;;;4.28;64.74
77452;BME280;66537;52.370;4.832;2023-01-28T04:43:00;103148.00;;;4.12;64.50
77452;BME280;66537;52.370;4.832;2023-01-28T04:45:25;103142.56;;;4.03;65.30
77452;BME280;66537;52.370;4.832;2023-01-28T04:47:51;103152.25;;;4.36;65.75
77452;BME280;66537;52.370;4.832;2023-01-28T04:50:17;103165.13;;;4.38;64.89
77452;BME280;66537;52.370;4.832;2023-01-28T04:52:42;103161.97;;;3.96;64.07
77452;BME280;66537;52.370;4.832;2023-01-28T04:55:09;103153.06;;;3.85;64.66
77452;BME280;66537;52.370;4.832;2023-01-28T04:57:34;103164.53;;;3.96;64.72
77452;BME280;66537;52.370;4.832;2023-01-28T05:00:00;103167.38;;;4.04;65.16
77452;BME280;66537;52.370;4.832;2023-01-28T05:02:25;103173.19;;;4.23;64.46
77452;BME280;66537;52.370;4.832;2023-01-28T05:04:50;103174.63;;;4.17;63.95
77452;BME280;66537;52.370;4.832;2023-01-28T05:07:16;103174.84;;;4.23;64.79
77452;BME280;66537;52.370;4.832;2023-01-28T05:09:41;103165.75;;;4.31;64.79
77452;BME280;66537;52.370;4.832;2023-01-28T05:12:06;103164.41;;;4.17;63.96
77452;BME280;66537;52.370;4.832;2023-01-28T05:14:32;103165.50;;;4.23;64.47
77452;BME280;66537;52.370;4.832;2023-01-28T05:16:58;103160.38;;;4.23;63.63
77452;BME280;66537;52.370;4.832;2023-01-28T05:19:23;103161.06;;;4.19;64.57
77452;BME280;66537;52.370;4.832;2023-01-28T05:21:48;103160.66;;;4.07;63.88
77452;BME280;66537;52.370;4.832;2023-01-28T05:24:14;103158.50;;;4.19;64.41
77452;BME280;66537;52.370;4.832;2023-01-28T05:26:40;103155.78;;;4.15;63.69
77452;BME280;66537;52.370;4.832;2023-01-28T05:29:06;103165.69;;;3.81;63.30
77452;BME280;66537;52.370;4.832;2023-01-28T05:31:31;103156.16;;;3.77;63.62
77452;BME280;66537;52.370;4.832;2023-01-28T05:33:56;103152.44;;;3.68;63.49
77452;BME280;66537;52.370;4.832;2023-01-28T05:36:22;103155.69;;;4.12;64.39
77452;BME280;66537;52.370;4.832;2023-01-28T05:38:47;103154.09;;;4.15;63.35
77452;BME280;66537;52.370;4.832;2023-01-28T05:41:12;103148.28;;;3.96;62.96
77452;BME280;66537;52.370;4.832;2023-01-28T05:43:38;103151.94;;;4.02;63.48
77452;BME280;66537;52.370;4.832;2023-01-28T05:46:03;103160.00;;;3.65;63.66
77452;BME280;66537;52.370;4.832;2023-01-28T05:48:29;103158.03;;;3.82;64.88
77452;BME280;66537;52.370;4.832;2023-01-28T05:50:54;103157.53;;;4.16;64.49
77452;BME280;66537;52.370;4.832;2023-01-28T05:53:19;103159.53;;;4.24;64.50
77452;BME280;66537;52.370;4.832;2023-01-28T05:55:51;103154.44;;;4.26;64.16
77452;BME280;66537;52.370;4.832;2023-01-28T05:58:18;103159.94;;;4.11;63.83
77452;BME280;66537;52.370;4.832;2023-01-28T06:00:44;103153.13;;;4.12;63.72
77452;BME280;66537;52.370;4.832;2023-01-28T06:03:09;103151.03;;;4.25;63.72
77452;BME280;66537;52.370;4.832;2023-01-28T06:05:35;103165.44;;;4.22;64.30
77452;BME280;66537;52.370;4.832;2023-01-28T06:08:00;103169.44;;;3.90;63.94
77452;BME280;66537;52.370;4.832;2023-01-28T06:10:25;103158.66;;;3.99;64.69
77452;BME280;66537;52.370;4.832;2023-01-28T06:12:54;103160.25;;;4.20;64.04
77452;BME280;66537;52.370;4.832;2023-01-28T06:15:19;103158.09;;;4.07;64.71
77452;BME280;66537;52.370;4.832;2023-01-28T06:17:45;103165.31;;;4.19;64.12
77452;BME280;66537;52.370;4.832;2023-01-28T06:20:10;103157.16;;;4.05;64.58
77452;BME280;66537;52.370;4.832;2023-01-28T06:22:36;103162.41;;;4.08;63.62
77452;BME280;66537;52.370;4.832;2023-01-28T06:25:02;103160.03;;;4.14;64.00
77452;BME280;66537;52.370;4.832;2023-01-28T06:27:28;103170.25;;;4.38;63.24
77452;BME280;66537;52.370;4.832;2023-01-28T06:29:53;103168.78;;;4.44;63.59
77452;BME280;66537;52.370;4.832;2023-01-28T06:32:19;103171.97;;;4.37;62.63
77452;BME280;66537;52.370;4.832;2023-01-28T06:34:45;103169.44;;;4.39;62.36
77452;BME280;66537;52.370;4.832;2023-01-28T06:37:13;103174.56;;;4.39;62.83
77452;BME280;66537;52.370;4.832;2023-01-28T06:39:39;103176.75;;;4.28;63.26
77452;BME280;66537;52.370;4.832;2023-01-28T06:42:04;103165.72;;;4.06;63.33
77452;BME280;66537;52.370;4.832;2023-01-28T06:44:30;103158.16;;;4.34;63.60
77452;BME280;66537;52.370;4.832;2023-01-28T06:46:55;103151.34;;;4.34;63.56
77452;BME280;66537;52.370;4.832;2023-01-28T06:49:20;103163.81;;;4.24;63.63
77452;BME280;66537;52.370;4.832;2023-01-28T06:51:46;103163.13;;;4.29;63.32
77452;BME280;66537;52.370;4.832;2023-01-28T06:54:11;103160.25;;;4.45;63.14
77452;BME280;66537;52.370;4.832;2023-01-28T06:56:37;103162.72;;;4.42;63.13
77452;BME280;66537;52.370;4.832;2023-01-28T06:59:02;103165.16;;;4.39;63.26
77452;BME280;66537;52.370;4.832;2023-01-28T07:01:28;103165.44;;;4.22;63.14
77452;BME280;66537;52.370;4.832;2023-01-28T07:03:53;103164.59;;;4.23;64.08
77452;BME280;66537;52.370;4.832;2023-01-28T07:06:18;103173.91;;;4.44;63.92
77452;BME280;66537;52.370;4.832;2023-01-28T07:08:44;103179.09;;;4.47;63.88
77452;BME280;66537;52.370;4.832;2023-01-28T07:11:09;103168.78;;;4.44;63.16
77452;BME280;66537;52.370;4.832;2023-01-28T07:13:35;103165.91;;;4.61;63.30
77452;BME280;66537;52.370;4.832;2023-01-28T07:16:00;103167.22;;;4.49;63.61
77452;BME280;66537;52.370;4.832;2023-01-28T07:18:25;103173.44;;;4.56;63.77
77452;BME280;66537;52.370;4.832;2023-01-28T07:20:51;103174.22;;;4.55;63.47
77452;BME280;66537;52.370;4.832;2023-01-28T07:23:16;103175.56;;;4.44;63.21
77452;BME280;66537;52.370;4.832;2023-01-28T07:25:42;103180.06;;;4.26;63.52
77452;BME280;66537;52.370;4.832;2023-01-28T07:28:07;103180.25;;;4.30;63.12
77452;BME280;66537;52.370;4.832;2023-01-28T07:30:32;103178.59;;;4.32;63.55
77452;BME280;66537;52.370;4.832;2023-01-28T07:32:58;103179.69;;;4.39;63.23
77452;BME280;66537;52.370;4.832;2023-01-28T07:35:24;103186.97;;;4.52;63.30
77452;BME280;66537;52.370;4.832;2023-01-28T07:37:54;103185.53;;;4.60;62.79
77452;BME280;66537;52.370;4.832;2023-01-28T07:40:20;103187.06;;;4.55;62.66
77452;BME280;66537;52.370;4.832;2023-01-28T07:42:45;103190.91;;;4.68;63.34
77452;BME280;66537;52.370;4.832;2023-01-28T07:45:11;103194.69;;;4.79;63.09
77452;BME280;66537;52.370;4.832;2023-01-28T07:47:36;103195.41;;;4.75;63.70
77452;BME280;66537;52.370;4.832;2023-01-28T07:50:02;103187.69;;;4.75;63.31
77452;BME280;66537;52.370;4.832;2023-01-28T07:52:27;103189.34;;;4.73;63.30
77452;BME280;66537;52.370;4.832;2023-01-28T07:54:53;103191.06;;;4.72;63.59
77452;BME280;66537;52.370;4.832;2023-01-28T07:57:18;103191.63;;;4.64;63.46
77452;BME280;66537;52.370;4.832;2023-01-28T07:59:51;103191.38;;;4.56;63.95
77452;BME280;66537;52.370;4.832;2023-01-28T08:02:17;103196.09;;;4.44;63.97
77452;BME280;66537;52.370;4.832;2023-01-28T08:04:42;103195.19;;;4.43;64.33
77452;BME280;66537;52.370;4.832;2023-01-28T08:07:08;103204.66;;;4.44;64.26
77452;BME280;66537;52.370;4.832;2023-01-28T08:09:33;103200.50;;;4.48;63.67
77452;BME280;66537;52.370;4.832;2023-01-28T08:12:00;103205.63;;;4.48;63.70
77452;BME280;66537;52.370;4.832;2023-01-28T08:14:26;103215.88;;;4.48;63.64
77452;BME280;66537;52.370;4.832;2023-01-28T08:16:52;103208.69;;;4.63;63.92
77452;BME280;66537;52.370;4.832;2023-01-28T08:19:17;103224.41;;;4.72;63.65
77452;BME280;66537;52.370;4.832;2023-01-28T08:21:43;103231.97;;;4.69;64.17
77452;BME280;66537;52.370;4.832;2023-01-28T08:24:08;103220.00;;;4.68;63.84
77452;BME280;66537;52.370;4.832;2023-01-28T08:26:33;103216.59;;;4.44;64.12
77452;BME280;66537;52.370;4.832;2023-01-28T08:28:59;103223.97;;;4.60;64.08
77452;BME280;66537;52.370;4.832;2023-01-28T08:31:24;103234.75;;;4.75;64.34
77452;BME280;66537;52.370;4.832;2023-01-28T08:33:50;103231.66;;;4.85;64.00
77452;BME280;66537;52.370;4.832;2023-01-28T08:36:15;103222.00;;;4.78;63.97
77452;BME280;66537;52.370;4.832;2023-01-28T08:38:40;103230.81;;;4.86;63.92
77452;BME280;66537;52.370;4.832;2023-01-28T08:41:07;103237.19;;;4.97;63.35
77452;BME280;66537;52.370;4.832;2023-01-28T08:43:32;103241.41;;;4.95;63.21
77452;BME280;66537;52.370;4.832;2023-01-28T08:45:58;103238.44;;;4.83;63.98
77452;BME280;66537;52.370;4.832;2023-01-28T08:48:23;103238.69;;;4.66;64.22
77452;BME280;66537;52.370;4.832;2023-01-28T08:50:49;103240.34;;;4.64;64.62
77452;BME280;66537;52.370;4.832;2023-01-28T08:53:16;103249.72;;;4.63;64.13
77452;BME280;66537;52.370;4.832;2023-01-28T08:55:42;103249.63;;;4.60;64.00
77452;BME280;66537;52.370;4.832;2023-01-28T08:58:16;103236.53;;;4.52;65.03
77452;BME280;66537;52.370;4.832;2023-01-28T09:00:42;103255.50;;;4.83;64.85
77452;BME280;66537;52.370;4.832;2023-01-28T09:03:07;103261.56;;;4.85;63.12
77452;BME280;66537;52.370;4.832;2023-01-28T09:05:34;103267.56;;;4.60;62.54
77452;BME280;66537;52.370;4.832;2023-01-28T09:08:01;103269.69;;;4.48;62.87
77452;BME280;66537;52.370;4.832;2023-01-28T09:10:27;103262.72;;;4.44;63.45
77452;BME280;66537;52.370;4.832;2023-01-28T09:12:52;103275.25;;;4.36;63.81
77452;BME280;66537;52.370;4.832;2023-01-28T09:15:18;103266.47;;;4.30;63.33
77452;BME280;66537;52.370;4.832;2023-01-28T09:17:43;103270.47;;;4.22;64.47
77452;BME280;66537;52.370;4.832;2023-01-28T09:20:09;103269.91;;;4.30;64.26
77452;BME280;66537;52.370;4.832;2023-01-28T09:22:36;103273.47;;;4.83;62.67
77452;BME280;66537;52.370;4.832;2023-01-28T09:25:01;103276.59;;;5.26;61.75
77452;BME280;66537;52.370;4.832;2023-01-28T09:27:27;103273.97;;;5.51;61.94
77452;BME280;66537;52.370;4.832;2023-01-28T09:29:52;103276.75;;;5.85;60.14
77452;BME280;66537;52.370;4.832;2023-01-28T09:32:18;103267.31;;;6.45;59.19
77452;BME280;66537;52.370;4.832;2023-01-28T09:34:43;103277.19;;;7.29;56.78
77452;BME280;66537;52.370;4.832;2023-01-28T09:37:09;103282.84;;;7.89;54.77
77452;BME280;66537;52.370;4.832;2023-01-28T09:39:35;103274.41;;;8.84;54.12
77452;BME280;66537;52.370;4.832;2023-01-28T09:42:29;103278.59;;;9.32;51.60
77452;BME280;66537;52.370;4.832;2023-01-28T09:47:46;103290.97;;;10.15;50.24
77452;BME280;66537;52.370;4.832;2023-01-28T09:50:36;103283.94;;;10.81;49.37
77452;BME280;66537;52.370;4.832;2023-01-28T09:55:47;103288.53;;;11.16;48.67
77452;BME280;66537;52.370;4.832;2023-01-28T09:58:14;103288.69;;;11.37;47.67
77452;BME280;66537;52.370;4.832;2023-01-28T10:01:00;103290.41;;;11.33;47.74
77452;BME280;66537;52.370;4.832;2023-01-28T10:14:35;103279.66;;;12.23;44.99
77452;BME280;66537;52.370;4.832;2023-01-28T10:17:41;103282.00;;;11.67;44.13
77452;BME280;66537;52.370;4.832;2023-01-28T10:22:44;103283.13;;;12.30;44.56
77452;BME280;66537;52.370;4.832;2023-01-28T10:25:19;103287.41;;;10.86;45.09
77452;BME280;66537;52.370;4.832;2023-01-28T10:27:46;103282.50;;;10.28;46.83
77452;BME280;66537;52.370;4.832;2023-01-28T10:35:45;103260.31;;;8.67;50.87
77452;BME280;66537;52.370;4.832;2023-01-28T10:38:14;103254.50;;;8.31;51.27
77452;BME280;66537;52.370;4.832;2023-01-28T10:40:42;103257.06;;;8.31;51.61
77452;BME280;66537;52.370;4.832;2023-01-28T10:43:07;103245.53;;;7.72;52.57
77452;BME280;66537;52.370;4.832;2023-01-28T10:46:26;103249.22;;;7.83;52.87
77452;BME280;66537;52.370;4.832;2023-01-28T10:51:29;103213.03;;;9.24;50.87
77452;BME280;66537;52.370;4.832;2023-01-28T10:53:54;103217.22;;;9.16;50.51
77452;BME280;66537;52.370;4.832;2023-01-28T10:56:26;103207.53;;;8.99;50.16
77452;BME280;66537;52.370;4.832;2023-01-28T10:58:56;103209.19;;;8.45;51.16
77452;BME280;66537;52.370;4.832;2023-01-28T11:01:24;103204.53;;;8.75;51.59
77452;BME280;66537;52.370;4.832;2023-01-28T11:03:54;103189.94;;;8.77;51.84
77452;BME280;66537;52.370;4.832;2023-01-28T11:06:26;103179.91;;;8.94;51.92
77452;BME280;66537;52.370;4.832;2023-01-28T11:08:52;103172.75;;;9.36;50.74
77452;BME280;66537;52.370;4.832;2023-01-28T11:11:27;103171.94;;;9.39;49.75
77452;BME280;66537;52.370;4.832;2023-01-28T11:13:53;103165.91;;;9.38;49.21
77452;BME280;66537;52.370;4.832;2023-01-28T11:16:22;103159.75;;;9.30;50.34
77452;BME280;66537;52.370;4.832;2023-01-28T11:18:59;103168.16;;;9.16;49.86
77452;BME280;66537;52.370;4.832;2023-01-28T11:21:29;103181.31;;;8.77;51.36
77452;BME280;66537;52.370;4.832;2023-01-28T11:24:04;103168.97;;;8.58;51.86
77452;BME280;66537;52.370;4.832;2023-01-28T11:26:35;103169.75;;;8.52;52.18
77452;BME280;66537;52.370;4.832;2023-01-28T11:29:02;103173.50;;;8.71;51.56
77452;BME280;66537;52.370;4.832;2023-01-28T11:31:28;103166.47;;;8.62;51.30
77452;BME280;66537;52.370;4.832;2023-01-28T11:34:01;103166.91;;;8.89;51.94
77452;BME280;66537;52.370;4.832;2023-01-28T11:36:31;103175.13;;;8.18;53.35
77452;BME280;66537;52.370;4.832;2023-01-28T11:39:01;103179.97;;;7.58;53.43
77452;BME280;66537;52.370;4.832;2023-01-28T11:41:33;103194.59;;;8.02;53.06
77452;BME280;66537;52.370;4.832;2023-01-28T11:44:10;103191.69;;;7.86;53.24
77452;BME280;66537;52.370;4.832;2023-01-28T12:03:27;103206.97;;;9.84;49.49
77452;BME280;66537;52.370;4.832;2023-01-28T12:08:53;103210.44;;;9.85;49.98
77452;BME280;66537;52.370;4.832;2023-01-28T12:20:10;103182.81;;;9.81;49.88
77452;BME280;66537;52.370;4.832;2023-01-28T12:23:01;103169.59;;;9.58;49.60
77452;BME280;66537;52.370;4.832;2023-01-28T12:28:37;103144.44;;;9.45;50.65
77452;BME280;66537;52.370;4.832;2023-01-28T12:42:17;103116.38;;;7.56;53.30
77452;BME280;66537;52.370;4.832;2023-01-28T12:44:58;103119.41;;;7.37;54.84
77452;BME280;66537;52.370;4.832;2023-01-28T12:47:32;103115.50;;;7.55;55.10
77452;BME280;66537;52.370;4.832;2023-01-28T12:50:03;103115.75;;;7.25;54.57
77452;BME280;66537;52.370;4.832;2023-01-28T12:52:37;103122.09;;;6.64;55.96
77452;BME280;66537;52.370;4.832;2023-01-28T12:55:15;103122.13;;;6.67;56.06
77452;BME280;66537;52.370;4.832;2023-01-28T12:57:42;103128.31;;;6.73;57.14
77452;BME280;66537;52.370;4.832;2023-01-28T13:00:29;103130.81;;;6.36;57.58
77452;BME280;66537;52.370;4.832;2023-01-28T13:05:35;103129.03;;;6.33;58.21
77452;BME280;66537;52.370;4.832;2023-01-28T13:08:16;103124.44;;;5.89;58.50
77452;BME280;66537;52.370;4.832;2023-01-28T13:10:46;103120.38;;;5.97;59.26
77452;BME280;66537;52.370;4.832;2023-01-28T13:13:24;103117.47;;;6.16;59.59
77452;BME280;66537;52.370;4.832;2023-01-28T13:15:51;103116.31;;;6.38;57.42
77452;BME280;66537;52.370;4.832;2023-01-28T13:18:48;103115.28;;;6.31;59.11
77452;BME280;66537;52.370;4.832;2023-01-28T13:23:49;103105.94;;;6.35;57.31
77452;BME280;66537;52.370;4.832;2023-01-28T13:28:43;103120.84;;;6.48;58.96
77452;BME280;66537;52.370;4.832;2023-01-28T13:31:11;103122.94;;;6.30;57.77
77452;BME280;66537;52.370;4.832;2023-01-28T13:34:06;103120.13;;;6.54;57.67
77452;BME280;66537;52.370;4.832;2023-01-28T13:36:37;103119.41;;;6.61;57.46
77452;BME280;66537;52.370;4.832;2023-01-28T13:41:44;103104.59;;;6.86;57.46
77452;BME280;66537;52.370;4.832;2023-01-28T13:44:33;103112.06;;;6.76;56.83
77452;BME280;66537;52.370;4.832;2023-01-28T13:52:04;103114.63;;;6.38;58.36
77452;BME280;66537;52.370;4.832;2023-01-28T13:54:34;103124.38;;;6.19;58.74
77452;BME280;66537;52.370;4.832;2023-01-28T13:59:52;103129.94;;;6.35;59.04
77452;BME280;66537;52.370;4.832;2023-01-28T14:05:35;103134.19;;;6.68;58.71
77452;BME280;66537;52.370;4.832;2023-01-28T14:11:29;103112.59;;;6.27;58.51
77452;BME280;66537;52.370;4.832;2023-01-28T14:14:25;103113.56;;;6.30;58.81
77452;BME280;66537;52.370;4.832;2023-01-28T14:19:42;103103.47;;;6.39;59.26
77452;BME280;66537;52.370;4.832;2023-01-28T14:22:16;103104.94;;;6.28;59.57
77452;BME280;66537;52.370;4.832;2023-01-28T14:24:43;103104.69;;;5.87;59.96
77452;BME280;66537;52.370;4.832;2023-01-28T14:27:21;103101.66;;;6.01;61.13
77452;BME280;66537;52.370;4.832;2023-01-28T14:32:29;103111.78;;;5.66;60.65
77452;BME280;66537;52.370;4.832;2023-01-28T14:34:58;103118.22;;;6.12;61.06
77452;BME280;66537;52.370;4.832;2023-01-28T14:37:28;103113.09;;;6.14;60.00
77452;BME280;66537;52.370;4.832;2023-01-28T14:39:59;103123.72;;;6.27;59.72
77452;BME280;66537;52.370;4.832;2023-01-28T14:42:36;103131.19;;;6.17;60.19
77452;BME280;66537;52.370;4.832;2023-01-28T14:47:49;103130.38;;;6.52;59.07
77452;BME280;66537;52.370;4.832;2023-01-28T14:58:56;103135.09;;;6.03;60.42
77452;BME280;66537;52.370;4.832;2023-01-28T15:01:28;103136.59;;;6.27;60.02
77452;BME280;66537;52.370;4.832;2023-01-28T15:03:54;103139.06;;;6.23;60.80
77452;BME280;66537;52.370;4.832;2023-01-28T15:06:21;103159.44;;;6.15;60.39
77452;BME280;66537;52.370;4.832;2023-01-28T15:08:53;103155.31;;;5.91;61.39
77452;BME280;66537;52.370;4.832;2023-01-28T15:11:29;103164.88;;;5.96;61.32
77452;BME280;66537;52.370;4.832;2023-01-28T15:13:57;103157.03;;;5.90;61.60
77452;BME280;66537;52.370;4.832;2023-01-28T15:16:25;103146.06;;;5.96;62.09
77452;BME280;66537;52.370;4.832;2023-01-28T15:18:53;103142.84;;;6.04;61.35
77452;BME280;66537;52.370;4.832;2023-01-28T15:21:23;103131.66;;;6.02;61.13